Time;durP1;ratioP1;P1;durP2;ratioP2;P2;SDS_P1;SDS_P2;PMS_P1;PMS_P2;Temp;Humidity;BMP_temperature;BMP_pressure;BME280_temperature;BME280_humidity;BME280_pressure;Samples;Min_cycle;Max_cycle;Signal;HPM_P1;HPM_P2
2024/03/03 00:00:16;;;;;;;55.72;23.85;;;;;;;3.03;100.00;94648.09;1026630;28;20070;-65
2024/03/03 00:00:47;;;;;;;55.30;23.75;;;;;;;3.03;100.00;94642.91;1025985;28;20065;-64
2024/03/03 00:01:17;;;;;;;59.17;24.55;;;;;;;3.02;100.00;94646.53;1026910;28;20037;-66
2024/03/03 00:01:48;;;;;;;49.55;22.95;;;;;;;3.03;100.00;94653.28;1018741;29;20294;-65
2024/03/03 00:02:18;;;;;;;54.90;24.10;;;;;;;3.01;100.00;94647.53;1026846;28;20046;-67
2024/03/03 00:02:49;;;;;;;58.90;25.42;;;;;;;3.02;100.00;94649.13;1026830;28;20035;-65
2024/03/03 00:03:19;;;;;;;63.42;24.60;;;;;;;3.02;100.00;94641.38;1027182;28;20043;-65
2024/03/03 00:03:50;;;;;;;54.38;23.40;;;;;;;3.01;100.00;94650.13;1034362;28;20050;-65
2024/03/03 00:04:20;;;;;;;57.85;23.92;;;;;;;2.99;100.00;94644.44;1026777;28;20082;-64
2024/03/03 00:04:51;;;;;;;59.38;25.42;;;;;;;3.00;100.00;94656.34;1027379;28;20015;-65
2024/03/03 00:05:21;;;;;;;57.42;23.33;;;;;;;2.97;100.00;94643.88;1021233;29;20054;-64
2024/03/03 00:05:52;;;;;;;57.83;24.65;;;;;;;2.96;100.00;94652.69;1025774;28;20038;-63
2024/03/03 00:06:23;;;;;;;57.88;24.05;;;;;;;2.94;100.00;94652.13;1023169;28;20519;-65
2024/03/03 00:06:54;;;;;;;63.08;24.85;;;;;;;2.92;100.00;94646.44;1027172;28;20290;-63
2024/03/03 00:07:24;;;;;;;52.22;23.33;;;;;;;2.96;100.00;94649.31;1032450;28;20038;-64
2024/03/03 00:07:55;;;;;;;60.75;25.15;;;;;;;2.95;100.00;94651.13;1026876;28;20427;-64
2024/03/03 00:08:25;;;;;;;57.05;24.05;;;;;;;2.92;100.00;94643.03;1026707;28;20038;-65
2024/03/03 00:08:56;;;;;;;61.53;24.77;;;;;;;2.92;100.00;94641.25;1023115;28;20027;-65
2024/03/03 00:09:26;;;;;;;59.88;24.50;;;;;;;2.94;100.00;94646.94;1030867;28;20038;-64
2024/03/03 00:09:57;;;;;;;60.75;24.25;;;;;;;2.89;100.00;94631.38;1038855;28;20017;-64
2024/03/03 00:10:27;;;;;;;55.38;24.40;;;;;;;2.93;100.00;94645.41;1034992;28;20045;-65
2024/03/03 00:10:58;;;;;;;58.22;23.77;;;;;;;2.91;100.00;94650.03;1037226;28;20095;-65
2024/03/03 00:11:28;;;;;;;66.38;24.02;;;;;;;2.89;100.00;94646.91;1038951;28;20123;-65
2024/03/03 00:11:59;;;;;;;54.95;23.42;;;;;;;2.88;100.00;94644.53;1038906;28;20052;-64
2024/03/03 00:12:29;;;;;;;58.75;25.45;;;;;;;2.76;100.00;94629.91;1034545;28;20026;-65
2024/03/03 00:13:00;;;;;;;60.80;23.40;;;;;;;2.86;100.00;94646.59;1035090;28;20103;-65
2024/03/03 00:13:31;;;;;;;52.10;23.48;;;;;;;2.76;100.00;94629.13;1026676;28;20102;-64
2024/03/03 00:14:02;;;;;;;53.08;24.05;;;;;;;2.86;100.00;94647.38;1026939;28;20427;-64
2024/03/03 00:14:34;;;;;;;58.42;24.42;;;;;;;2.86;100.00;94646.59;1026740;28;20266;-64
2024/03/03 00:15:05;;;;;;;64.82;25.33;;;;;;;2.84;100.00;94650.19;1022789;29;20511;-65
2024/03/03 00:15:36;;;;;;;59.63;23.77;;;;;;;2.84;100.00;94654.59;1019433;29;20255;-66
2024/03/03 00:16:06;;;;;;;62.08;24.92;;;;;;;2.82;100.00;94643.72;1021871;29;20050;-64
2024/03/03 00:16:41;;;;;;;54.80;24.23;;;;;;;2.81;100.00;94642.13;1026629;28;20470;-64
2024/03/03 00:17:12;;;;;;;62.20;24.25;;;;;;;2.79;100.00;94646.78;1026786;28;20109;-68
2024/03/03 00:17:42;;;;;;;56.63;23.63;;;;;;;2.76;100.00;94649.84;1025057;28;20266;-64
2024/03/03 00:18:13;;;;;;;52.05;23.92;;;;;;;2.77;100.00;94651.41;1023391;28;20729;-64
2024/03/03 00:18:43;;;;;;;59.13;23.90;;;;;;;2.76;100.00;94647.25;1019069;28;20118;-65
2024/03/03 00:19:14;;;;;;;52.42;22.98;;;;;;;2.74;100.00;94646.72;1022765;28;20019;-65
2024/03/03 00:19:44;;;;;;;58.25;25.52;;;;;;;2.76;100.00;94647.25;1026782;28;20023;-65
2024/03/03 00:20:15;;;;;;;56.33;23.33;;;;;;;2.75;100.00;94641.31;1022803;29;20022;-65
2024/03/03 00:20:45;;;;;;;52.08;23.48;;;;;;;2.76;100.00;94650.63;1018174;29;20020;-64
2024/03/03 00:21:16;;;;;;;54.83;24.23;;;;;;;2.76;100.00;94647.25;1024444;28;20295;-64
2024/03/03 00:21:46;;;;;;;68.60;24.75;;;;;;;2.61;100.00;94624.53;1026681;28;20049;-64
2024/03/03 00:22:17;;;;;;;58.70;24.25;;;;;;;2.71;100.00;94650.56;1026742;28;20031;-65
2024/03/03 00:22:48;;;;;;;56.80;24.35;;;;;;;2.74;100.00;94649.28;1022685;28;20082;-65
2024/03/03 00:23:18;;;;;;;59.17;24.98;;;;;;;2.62;100.00;94633.88;1026901;28;20011;-64
2024/03/03 00:23:49;;;;;;;57.95;26.00;;;;;;;2.71;100.00;94645.38;1030670;28;20285;-64
2024/03/03 00:24:20;;;;;;;71.03;25.73;;;;;;;2.57;100.00;94624.22;1026497;28;20011;-65
2024/03/03 00:24:50;;;;;;;63.95;24.65;;;;;;;2.69;100.00;94641.47;1022893;28;20034;-64
2024/03/03 00:25:21;;;;;;;61.55;25.20;;;;;;;2.67;100.00;94643.50;1018904;29;20119;-64
2024/03/03 00:25:51;;;;;;;62.28;24.55;;;;;;;2.67;100.00;94648.69;1022774;29;20098;-64
2024/03/03 00:26:22;;;;;;;51.80;22.92;;;;;;;2.64;100.00;94638.81;1030401;28;20041;-63
2024/03/03 00:26:52;;;;;;;57.95;23.98;;;;;;;2.63;100.00;94643.22;1030822;28;20038;-63
2024/03/03 00:27:22;;;;;;;58.47;24.13;;;;;;;2.50;100.00;94621.03;1026623;28;20125;-64
2024/03/03 00:27:53;;;;;;;59.28;23.20;;;;;;;2.63;100.00;94643.22;1022774;28;20059;-65
2024/03/03 00:28:24;;;;;;;59.50;24.42;;;;;;;2.55;100.00;94631.47;1023132;29;20055;-64
2024/03/03 00:28:54;;;;;;;59.33;24.60;;;;;;;2.63;100.00;94648.38;1027567;28;20533;-64
2024/03/03 00:29:24;;;;;;;53.83;25.63;;;;;;;2.64;100.00;94644.00;1026585;28;20046;-65
2024/03/03 00:29:55;;;;;;;64.00;24.80;;;;;;;2.61;100.00;94642.66;1023554;28;20093;-65
2024/03/03 00:30:26;;;;;;;58.42;24.90;;;;;;;2.64;100.00;94644.00;1023882;28;20840;-65
2024/03/03 00:30:56;;;;;;;63.20;24.13;;;;;;;2.61;100.00;94640.06;1027145;28;20554;-65
2024/03/03 00:31:27;;;;;;;66.68;25.17;;;;;;;2.64;100.00;94641.41;1027506;28;20030;-65
2024/03/03 00:31:57;;;;;;;56.55;22.63;;;;;;;2.65;100.00;94638.59;1027644;28;20042;-65
2024/03/03 00:32:28;;;;;;;61.88;25.35;;;;;;;2.64;100.00;94644.75;1023749;28;20498;-66
2024/03/03 00:32:58;;;;;;;69.07;25.30;;;;;;;2.65;100.00;94642.97;1029734;28;20030;-64
2024/03/03 00:33:29;;;;;;;65.20;24.63;;;;;;;2.67;100.00;94633.16;1031585;28;20045;-65
2024/03/03 00:33:59;;;;;;;73.57;25.25;;;;;;;2.67;100.00;94643.50;1031757;28;20057;-65
2024/03/03 00:34:30;;;;;;;65.28;25.05;;;;;;;2.66;100.00;94640.16;1027049;28;20082;-67
2024/03/03 00:35:01;;;;;;;65.03;25.20;;;;;;;2.56;100.00;94619.31;1023830;28;20039;-64
2024/03/03 00:35:31;;;;;;;66.43;24.92;;;;;;;2.70;100.00;94635.25;1035493;28;20032;-65
2024/03/03 00:36:05;;;;;;;65.95;25.83;;;;;;;2.70;100.00;94637.84;1035652;28;20018;-64
2024/03/03 00:36:36;;;;;;;61.03;25.70;;;;;;;2.73;100.00;94637.38;1031305;28;20029;-65
2024/03/03 00:37:06;;;;;;;65.50;25.25;;;;;;;2.72;100.00;94639.19;1024608;28;20281;-65
2024/03/03 00:37:37;;;;;;;66.03;26.25;;;;;;;2.72;100.00;94630.66;1031688;28;20022;-65
2024/03/03 00:38:07;;;;;;;65.90;24.52;;;;;;;2.72;100.00;94635.81;1035389;28;20057;-64
2024/03/03 00:38:38;;;;;;;60.85;24.73;;;;;;;2.74;100.00;94636.34;1031636;28;20498;-65
2024/03/03 00:39:08;;;;;;;58.80;25.52;;;;;;;2.75;100.00;94633.53;1027529;28;20118;-65
2024/03/03 00:39:39;;;;;;;65.78;25.33;;;;;;;2.74;100.00;94636.34;1024572;28;20126;-65
2024/03/03 00:40:10;;;;;;;65.20;25.17;;;;;;;2.68;100.00;94619.16;1031739;28;20064;-65
2024/03/03 00:40:41;;;;;;;60.92;25.98;;;;;;;2.77;100.00;94633.28;1027027;28;20443;-65
2024/03/03 00:41:11;;;;;;;60.47;24.45;;;;;;;2.68;100.00;94614.78;1027492;28;20262;-65
2024/03/03 00:41:42;;;;;;;66.45;27.73;;;;;;;2.79;100.00;94636.44;1019866;28;20118;-66
2024/03/03 00:42:12;;;;;;;56.95;25.13;;;;;;;2.76;100.00;94631.72;1023814;28;20078;-66
2024/03/03 00:42:43;;;;;;;65.30;26.65;;;;;;;2.77;100.00;94630.69;1023426;29;20027;-65
2024/03/03 00:43:13;;;;;;;64.07;25.10;;;;;;;2.77;100.00;94634.06;1030187;28;20054;-65
2024/03/03 00:43:44;;;;;;;60.72;26.23;;;;;;;2.80;100.00;94632.81;1031432;28;20101;-65
2024/03/03 00:44:14;;;;;;;61.85;26.65;;;;;;;2.80;100.00;94635.38;1035688;28;20061;-66
2024/03/03 00:44:45;;;;;;;64.68;27.10;;;;;;;2.81;100.00;94634.34;1030176;28;20057;-64
2024/03/03 00:45:15;;;;;;;70.78;26.65;;;;;;;2.79;100.00;94629.44;1023591;28;20062;-64
2024/03/03 00:45:46;;;;;;;64.68;25.73;;;;;;;2.79;100.00;94633.84;1023850;28;20030;-66
2024/03/03 00:46:16;;;;;;;59.92;26.58;;;;;;;2.65;100.00;94606.69;1027620;28;20065;-65
2024/03/03 00:46:47;;;;;;;66.63;27.17;;;;;;;2.77;100.00;94628.09;1028102;28;20491;-67
2024/03/03 00:47:17;;;;;;;72.32;25.95;;;;;;;2.75;100.00;94630.13;1030996;28;20042;-65
2024/03/03 00:47:48;;;;;;;66.30;26.30;;;;;;;2.74;100.00;94628.56;1027357;28;20030;-65
2024/03/03 00:48:19;;;;;;;55.33;25.25;;;;;;;2.76;100.00;94626.53;1027754;28;20037;-65
2024/03/03 00:48:49;;;;;;;66.38;27.73;;;;;;;2.63;100.00;94606.19;1027412;28;20058;-64
2024/03/03 00:49:20;;;;;;;63.38;25.88;;;;;;;2.74;100.00;94624.19;1031792;28;20050;-65
2024/03/03 00:49:50;;;;;;;66.00;25.85;;;;;;;2.75;100.00;94624.94;1035735;28;20569;-66
2024/03/03 00:50:21;;;;;;;67.43;25.98;;;;;;;2.73;100.00;94624.44;1034055;28;20073;-65
2024/03/03 00:50:51;;;;;;;59.38;25.50;;;;;;;2.72;100.00;94628.06;1035188;28;20470;-65
2024/03/03 00:51:22;;;;;;;60.33;25.02;;;;;;;2.73;100.00;94627.03;1031510;28;20061;-64
2024/03/03 00:51:52;;;;;;;67.40;26.45;;;;;;;2.70;100.00;94632.69;1027514;28;20031;-65
2024/03/03 00:52:23;;;;;;;64.65;25.80;;;;;;;2.68;100.00;94625.13;1023879;28;20486;-65
2024/03/03 00:52:57;;;;;;;57.50;24.95;;;;;;;2.68;100.00;94624.34;1028011;28;20015;-64
2024/03/03 00:53:27;;;;;;;69.35;27.20;;;;;;;2.67;100.00;94625.38;1027979;28;20282;-65
2024/03/03 00:53:58;;;;;;;67.70;25.80;;;;;;;2.67;100.00;94628.75;1028335;28;20292;-65
2024/03/03 00:54:28;;;;;;;73.53;26.23;;;;;;;2.67;100.00;94623.56;1027882;28;20507;-65
2024/03/03 00:54:59;;;;;;;59.70;25.48;;;;;;;2.67;100.00;94627.97;1027582;28;20042;-65
2024/03/03 00:55:29;;;;;;;68.38;26.10;;;;;;;2.68;100.00;94626.94;1027552;28;20489;-65
2024/03/03 00:56:00;;;;;;;68.30;26.48;;;;;;;2.68;100.00;94629.53;1023623;28;20046;-65
2024/03/03 00:56:30;;;;;;;64.50;25.25;;;;;;;2.67;100.00;94628.75;1030251;28;20041;-64
2024/03/03 00:57:03;;;;;;;73.85;27.63;;;;;;;2.68;100.00;94626.94;1031240;28;20037;-65
2024/03/03 00:57:34;;;;;;;60.00;25.98;;;;;;;2.65;100.00;94620.47;1028033;28;20045;-65
2024/03/03 00:58:04;;;;;;;63.13;25.88;;;;;;;2.66;100.00;94622.00;1023775;29;20273;-66
2024/03/03 00:58:35;;;;;;;62.75;25.25;;;;;;;2.65;100.00;94624.81;1023323;29;20146;-65
2024/03/03 00:59:05;;;;;;;75.40;27.95;;;;;;;2.64;100.00;94623.28;1026558;28;20140;-64
2024/03/03 00:59:36;;;;;;;65.65;25.90;;;;;;;2.65;100.00;94620.47;1035598;28;20473;-64
2024/03/03 01:00:08;;;;;;;66.30;26.17;;;;;;;2.66;100.00;94621.25;1031561;28;20033;-65
2024/03/03 01:00:39;;;;;;;69.35;27.08;;;;;;;2.55;100.00;94609.97;1030996;28;20399;-65
2024/03/03 01:01:12;;;;;;;61.42;25.40;;;;;;;2.64;100.00;94618.09;1031463;28;20297;-64
2024/03/03 01:01:43;;;;;;;62.72;24.65;;;;;;;2.64;100.00;94612.91;1031365;28;20026;-65
2024/03/03 01:02:13;;;;;;;74.32;27.58;;;;;;;2.61;100.00;94611.59;1027493;28;20705;-66
2024/03/03 01:02:44;;;;;;;61.40;25.90;;;;;;;2.62;100.00;94609.78;1023350;29;20046;-64
2024/03/03 01:03:14;;;;;;;69.18;25.42;;;;;;;2.63;100.00;94611.34;1027432;28;20060;-65
2024/03/03 01:03:45;;;;;;;72.43;27.98;;;;;;;2.60;100.00;94608.22;1031590;28;20204;-65
2024/03/03 01:04:15;;;;;;;63.60;25.92;;;;;;;2.60;100.00;94610.81;1023268;28;20104;-65
2024/03/03 01:04:46;;;;;;;65.13;25.77;;;;;;;2.58;100.00;94606.88;1023554;28;20070;-65
2024/03/03 01:05:16;;;;;;;59.97;24.65;;;;;;;2.57;100.00;94606.09;1022464;29;20035;-65
2024/03/03 01:05:47;;;;;;;59.45;25.55;;;;;;;2.57;100.00;94608.69;1026600;28;20050;-64
2024/03/03 01:06:18;;;;;;;60.17;24.95;;;;;;;2.58;100.00;94604.28;1027608;28;20402;-65
2024/03/03 01:06:48;;;;;;;62.90;25.92;;;;;;;2.58;100.00;94604.28;1023335;29;20279;-65
2024/03/03 01:07:19;;;;;;;66.43;24.85;;;;;;;2.56;100.00;94601.94;1027279;28;20034;-65
2024/03/03 01:07:50;;;;;;;60.45;25.30;;;;;;;2.57;100.00;94602.72;1019641;29;20039;-65
2024/03/03 01:08:20;;;;;;;65.22;25.92;;;;;;;2.55;100.00;94594.44;1023299;29;20704;-65
2024/03/03 01:08:51;;;;;;;67.50;24.85;;;;;;;2.55;100.00;94600.41;1019555;29;20272;-64
2024/03/03 01:09:21;;;;;;;69.22;25.88;;;;;;;2.54;100.00;94596.22;1026771;28;20026;-65
2024/03/03 01:09:52;;;;;;;63.72;25.55;;;;;;;2.54;100.00;94591.03;1027323;28;20050;-63
2024/03/03 01:10:23;;;;;;;67.63;25.92;;;;;;;2.40;100.00;94574.31;1027397;28;20498;-63
2024/03/03 01:10:53;;;;;;;64.07;25.75;;;;;;;2.52;100.00;94590.53;1030594;28;20057;-65
2024/03/03 01:11:24;;;;;;;70.65;27.52;;;;;;;2.56;100.00;94593.41;1035401;28;20068;-64
2024/03/03 01:11:54;;;;;;;70.50;28.38;;;;;;;2.55;100.00;94590.03;1031459;28;20022;-64
2024/03/03 01:12:25;;;;;;;67.88;27.35;;;;;;;2.54;100.00;94593.63;1028180;28;20648;-65
2024/03/03 01:12:55;;;;;;;61.30;25.60;;;;;;;2.53;100.00;94592.06;1023447;29;20106;-64
2024/03/03 01:13:26;;;;;;;70.93;25.90;;;;;;;2.51;100.00;94595.91;1023403;29;20504;-64
2024/03/03 01:13:56;;;;;;;74.63;27.63;;;;;;;2.50;100.00;94595.13;1027275;28;20558;-65
2024/03/03 01:14:27;;;;;;;66.82;26.60;;;;;;;2.50;100.00;94592.56;1026736;28;20030;-64
2024/03/03 01:14:57;;;;;;;74.57;26.83;;;;;;;2.49;100.00;94585.81;1021610;29;20102;-65
2024/03/03 01:15:28;;;;;;;75.60;28.25;;;;;;;2.49;100.00;94585.81;1027136;28;20034;-65
2024/03/03 01:15:58;;;;;;;64.03;26.90;;;;;;;2.50;100.00;94592.56;1025495;28;20614;-65
2024/03/03 01:16:29;;;;;;;68.82;26.13;;;;;;;2.48;100.00;94588.63;1027148;28;20499;-66
2024/03/03 01:16:59;;;;;;;66.65;25.83;;;;;;;2.48;100.00;94592.03;1027332;28;20062;-68
2024/03/03 01:17:30;;;;;;;70.65;26.85;;;;;;;2.45;100.00;94584.75;1027810;28;20019;-65
2024/03/03 01:18:01;;;;;;;75.88;28.55;;;;;;;2.44;100.00;94583.16;1027207;28;20027;-64
2024/03/03 01:18:32;;;;;;;72.78;27.00;;;;;;;2.44;100.00;94590.91;1031225;28;20022;-65
2024/03/03 01:19:02;;;;;;;66.57;26.10;;;;;;;2.44;100.00;94590.91;1027276;28;20047;-63
2024/03/03 01:19:35;;;;;;;62.30;26.00;;;;;;;2.42;100.00;94595.56;1026953;28;20487;-65
2024/03/03 01:20:06;;;;;;;55.38;24.83;;;;;;;2.43;100.00;94591.16;1023908;28;20362;-67
2024/03/03 01:20:37;;;;;;;68.78;25.02;;;;;;;2.35;100.00;94579.44;1023798;28;20624;-65
2024/03/03 01:21:07;;;;;;;70.70;27.50;;;;;;;2.40;100.00;94586.47;1025790;28;20293;-64
2024/03/03 01:21:40;;;;;;;63.28;26.05;;;;;;;2.41;100.00;94588.81;1031399;28;20317;-65
2024/03/03 01:22:11;;;;;;;62.30;26.80;;;;;;;2.40;100.00;94586.47;1035378;28;20060;-66
2024/03/03 01:22:41;;;;;;;72.20;27.42;;;;;;;2.38;100.00;94578.94;1031384;28;20796;-65
2024/03/03 01:23:12;;;;;;;72.80;27.00;;;;;;;2.42;100.00;94582.63;1031055;28;20034;-64
2024/03/03 01:23:43;;;;;;;70.15;26.52;;;;;;;2.43;100.00;94579.00;1027144;28;20166;-65
2024/03/03 01:24:14;;;;;;;62.85;25.88;;;;;;;2.44;100.00;94575.38;1027798;28;20566;-66
2024/03/03 01:24:44;;;;;;;68.97;26.17;;;;;;;2.48;100.00;94581.66;1027957;28;20409;-65
2024/03/03 01:25:15;;;;;;;66.75;26.25;;;;;;;2.46;100.00;94565.59;1027597;28;20027;-64
2024/03/03 01:25:48;;;;;;;70.05;26.58;;;;;;;2.48;100.00;94570.50;1027460;28;20438;-64
2024/03/03 01:26:18;;;;;;;75.13;27.33;;;;;;;2.38;100.00;94555.63;1026074;28;20026;-65
2024/03/03 01:26:49;;;;;;;67.50;26.83;;;;;;;2.45;100.00;94566.63;1027753;28;20346;-65
2024/03/03 01:27:19;;;;;;;75.75;27.40;;;;;;;2.42;100.00;94571.50;1031595;28;20026;-65
2024/03/03 01:27:50;;;;;;;76.85;27.70;;;;;;;2.47;100.00;94580.09;1031261;28;20027;-65
2024/03/03 01:28:20;;;;;;;81.70;28.75;;;;;;;2.48;100.00;94576.50;1035617;28;20131;-64
2024/03/03 01:28:51;;;;;;;69.30;27.42;;;;;;;2.49;100.00;94574.69;1031400;28;20089;-65
2024/03/03 01:29:21;;;;;;;72.70;27.02;;;;;;;2.49;100.00;94572.88;1032134;28;20077;-66
2024/03/03 01:29:52;;;;;;;76.00;29.00;;;;;;;2.49;100.00;94583.22;1031333;28;20450;-63
2024/03/03 01:30:22;;;;;;;69.50;27.50;;;;;;;2.48;100.00;94579.09;1027740;28;20031;-65
2024/03/03 01:30:53;;;;;;;76.00;27.23;;;;;;;2.43;100.00;94568.66;1023252;28;20082;-65
2024/03/03 01:31:23;;;;;;;71.25;26.67;;;;;;;2.33;100.00;94556.34;1027648;28;20136;-64
2024/03/03 01:31:54;;;;;;;65.07;26.25;;;;;;;2.46;100.00;94575.16;1027231;28;20605;-65
2024/03/03 01:32:24;;;;;;;71.90;27.23;;;;;;;2.48;100.00;94573.09;1019766;29;20142;-66
2024/03/03 01:32:55;;;;;;;67.38;26.75;;;;;;;2.48;100.00;94568.72;1019474;29;20031;-65
2024/03/03 01:33:25;;;;;;;66.70;26.58;;;;;;;2.47;100.00;94564.56;1027596;28;20504;-65
2024/03/03 01:33:59;;;;;;;79.60;28.60;;;;;;;2.47;100.00;94569.72;1031108;28;20027;-65
2024/03/03 01:34:32;;;;;;;69.32;28.23;;;;;;;2.49;100.00;94572.88;1031186;28;20030;-64
2024/03/03 01:35:03;;;;;;;73.90;25.48;;;;;;;2.45;100.00;94564.03;1031973;28;20796;-64
2024/03/03 01:35:33;;;;;;;69.70;28.13;;;;;;;2.49;100.00;94564.31;1027275;28;20433;-65
2024/03/03 01:36:04;;;;;;;71.50;26.67;;;;;;;2.46;100.00;94562.22;1027496;28;20031;-65
2024/03/03 01:36:35;;;;;;;69.65;27.42;;;;;;;2.47;100.00;94572.31;1031234;28;20027;-65
2024/03/03 01:37:05;;;;;;;73.70;28.33;;;;;;;2.47;100.00;94572.31;1031517;28;20054;-64
2024/03/03 01:37:36;;;;;;;71.85;26.20;;;;;;;2.47;100.00;94569.72;1031445;28;20095;-65
2024/03/03 01:38:06;;;;;;;72.43;27.90;;;;;;;2.48;100.00;94579.09;1023020;28;20027;-62
2024/03/03 01:38:37;;;;;;;71.18;27.77;;;;;;;2.48;100.00;94567.91;1027484;28;20165;-64
2024/03/03 01:39:09;;;;;;;72.32;27.70;;;;;;;2.47;100.00;94577.50;1027403;28;20479;-65
2024/03/03 01:39:41;;;;;;;77.10;27.50;;;;;;;2.40;100.00;94556.19;1027089;28;20065;-64
2024/03/03 01:40:12;;;;;;;74.65;28.20;;;;;;;2.51;100.00;94570.81;1026707;28;20270;-61
2024/03/03 01:40:49;;;;;;;75.97;27.65;;;;;;;2.49;100.00;94572.09;1022625;29;20746;-64
2024/03/03 01:41:20;;;;;;;71.60;26.75;;;;;;;2.50;100.00;94571.84;1022250;29;20070;-65
2024/03/03 01:41:51;;;;;;;68.10;27.70;;;;;;;2.48;100.00;94570.50;1023222;29;20834;-65
2024/03/03 01:42:21;;;;;;;71.10;27.55;;;;;;;2.47;100.00;94574.13;1027404;28;20550;-65
2024/03/03 01:42:55;;;;;;;71.43;28.40;;;;;;;2.45;100.00;94576.97;1023331;29;20035;-64
2024/03/03 01:43:26;;;;;;;69.82;27.27;;;;;;;2.46;100.00;94575.94;1019309;29;20498;-64
2024/03/03 01:43:59;;;;;;;76.28;27.27;;;;;;;2.32;100.00;94554.03;1027157;28;20262;-65
2024/03/03 01:44:29;;;;;;;71.32;26.45;;;;;;;2.43;100.00;94571.25;1027531;28;20053;-65
2024/03/03 01:45:00;;;;;;;68.32;27.92;;;;;;;2.47;100.00;94568.94;1027171;28;20357;-64
2024/03/03 01:45:31;;;;;;;67.07;27.50;;;;;;;2.45;100.00;94571.78;1031146;28;20375;-65
2024/03/03 01:46:02;;;;;;;69.10;27.08;;;;;;;2.45;100.00;94558.84;1027285;28;20501;-65
2024/03/03 01:46:32;;;;;;;77.43;27.52;;;;;;;2.44;100.00;94570.22;1027155;28;20114;-65
2024/03/03 01:47:03;;;;;;;70.60;26.48;;;;;;;2.32;100.00;94554.81;1033545;28;20022;-65
2024/03/03 01:47:33;;;;;;;71.38;27.83;;;;;;;2.28;100.00;94550.31;1031303;28;20026;-65
2024/03/03 01:48:04;;;;;;;68.50;26.58;;;;;;;2.28;100.00;94548.53;1035219;28;20393;-66
2024/03/03 01:48:36;;;;;;;65.78;27.50;;;;;;;2.41;100.00;94567.31;1026323;28;20033;-65
2024/03/03 01:49:07;;;;;;;66.78;27.50;;;;;;;2.39;100.00;94569.38;1023896;28;20479;-65
2024/03/03 01:49:38;;;;;;;68.78;27.10;;;;;;;2.39;100.00;94574.56;1027701;28;20270;-66
2024/03/03 01:50:08;;;;;;;68.75;26.85;;;;;;;2.22;100.00;94549.50;1027775;28;20030;-65
2024/03/03 01:50:41;;;;;;;72.28;26.50;;;;;;;2.35;100.00;94569.84;1026212;28;20058;-65
2024/03/03 01:51:11;;;;;;;71.63;27.33;;;;;;;2.33;100.00;94566.72;1023718;28;20028;-64
2024/03/03 01:51:42;;;;;;;73.70;26.20;;;;;;;2.37;100.00;94572.19;1027230;28;20879;-63
2024/03/03 01:52:12;;;;;;;65.40;28.55;;;;;;;2.35;100.00;94569.06;1027753;28;20066;-63
2024/03/03 01:52:43;;;;;;;75.97;26.38;;;;;;;2.32;100.00;94566.97;1027590;28;20038;-65
2024/03/03 01:53:14;;;;;;;67.57;27.05;;;;;;;2.34;100.00;94577.84;1023391;28;20503;-66
2024/03/03 01:53:45;;;;;;;70.25;28.73;;;;;;;2.34;100.00;94570.84;1025837;28;20038;-65
2024/03/03 01:54:15;;;;;;;65.97;27.13;;;;;;;2.24;100.00;94551.84;1027075;28;20041;-65
2024/03/03 01:54:46;;;;;;;67.47;26.60;;;;;;;2.33;100.00;94571.09;1027084;28;20316;-63
2024/03/03 01:55:21;;;;;;;63.78;27.02;;;;;;;2.33;100.00;94568.53;1023546;29;20027;-65
2024/03/03 01:55:52;;;;;;;67.50;25.95;;;;;;;2.31;100.00;94573.13;1027112;28;20023;-64
2024/03/03 01:56:23;;;;;;;75.05;26.63;;;;;;;2.32;100.00;94566.97;1030528;28;20285;-62
2024/03/03 01:56:54;;;;;;;67.40;27.45;;;;;;;2.30;100.00;94572.38;1030130;28;20026;-66
2024/03/03 01:57:24;;;;;;;65.90;26.60;;;;;;;2.29;100.00;94564.84;1027714;28;20277;-64
2024/03/03 01:58:00;;;;;;;72.40;27.33;;;;;;;2.30;100.00;94563.81;1035621;28;20042;-65
2024/03/03 01:58:31;;;;;;;59.75;25.92;;;;;;;2.29;100.00;94572.63;1040071;28;20057;-64
2024/03/03 01:59:02;;;;;;;73.47;26.42;;;;;;;2.28;100.00;94568.44;1040512;28;20271;-64
2024/03/03 01:59:33;;;;;;;76.32;27.88;;;;;;;2.27;100.00;94566.88;1039416;28;20021;-65
2024/03/03 02:00:05;;;;;;;73.20;26.52;;;;;;;2.28;100.00;94563.28;1039220;28;20280;-65
2024/03/03 02:00:35;;;;;;;66.80;26.70;;;;;;;2.28;100.00;94568.44;1039056;28;20402;-65
2024/03/03 02:01:06;;;;;;;76.10;27.73;;;;;;;2.27;100.00;94566.88;1039053;28;20268;-65
2024/03/03 02:01:36;;;;;;;73.13;27.63;;;;;;;2.27;100.00;94562.50;1039556;28;20036;-65
2024/03/03 02:02:07;;;;;;;68.57;27.42;;;;;;;2.27;100.00;94566.88;1039586;28;20026;-65
2024/03/03 02:02:38;;;;;;;72.32;27.20;;;;;;;2.27;100.00;94564.28;1039809;28;20033;-65
2024/03/03 02:03:09;;;;;;;63.95;26.63;;;;;;;2.25;100.00;94561.97;1039235;28;20104;-65
2024/03/03 02:03:39;;;;;;;64.35;27.08;;;;;;;2.26;100.00;94557.56;1035486;28;20768;-65
2024/03/03 02:04:09;;;;;;;62.70;26.48;;;;;;;2.24;100.00;94557.00;1033945;28;20449;-65
2024/03/03 02:04:40;;;;;;;70.45;27.85;;;;;;;2.25;100.00;94556.00;1035390;28;20121;-67
2024/03/03 02:05:10;;;;;;;64.18;26.75;;;;;;;2.24;100.00;94562.97;1034608;28;20060;-63
2024/03/03 02:05:41;;;;;;;70.60;26.55;;;;;;;2.23;100.00;94556.22;1034291;28;20014;-66
2024/03/03 02:06:11;;;;;;;72.22;26.50;;;;;;;2.08;100.00;94532.75;1031446;28;20014;-65
2024/03/03 02:06:42;;;;;;;74.63;27.10;;;;;;;2.23;100.00;94555.44;1029726;28;20498;-64
2024/03/03 02:07:12;;;;;;;80.95;28.45;;;;;;;2.21;100.00;94552.31;1030999;28;20022;-65
2024/03/03 02:07:43;;;;;;;69.65;27.38;;;;;;;2.23;100.00;94558.03;1027324;28;20086;-65
2024/03/03 02:08:13;;;;;;;71.43;27.83;;;;;;;2.21;100.00;94549.72;1031164;28;20029;-65
2024/03/03 02:08:44;;;;;;;73.38;27.10;;;;;;;2.20;100.00;94555.94;1038231;28;20025;-66
2024/03/03 02:09:15;;;;;;;74.95;27.52;;;;;;;2.10;100.00;94544.41;1035138;28;20120;-65
2024/03/03 02:09:45;;;;;;;65.80;26.27;;;;;;;2.20;100.00;94553.34;1033791;28;20041;-64
2024/03/03 02:10:16;;;;;;;70.28;25.83;;;;;;;2.21;100.00;94552.31;1035310;28;20018;-65
2024/03/03 02:10:46;;;;;;;66.82;27.02;;;;;;;2.21;100.00;94557.47;1036259;28;20036;-65
2024/03/03 02:11:17;;;;;;;62.08;25.27;;;;;;;2.20;100.00;94548.16;1035063;28;20053;-65
2024/03/03 02:11:47;;;;;;;75.88;29.35;;;;;;;2.19;100.00;94549.19;1038824;28;20026;-65
2024/03/03 02:12:18;;;;;;;68.65;26.33;;;;;;;2.20;100.00;94551.53;1043117;28;20106;-65
2024/03/03 02:12:48;;;;;;;65.03;25.98;;;;;;;2.20;100.00;94548.16;1038711;28;20044;-66
2024/03/03 02:13:19;;;;;;;68.72;26.40;;;;;;;2.20;100.00;94548.94;1039342;28;20452;-64
2024/03/03 02:13:49;;;;;;;72.85;26.60;;;;;;;2.21;100.00;94549.72;1043240;28;20032;-65
2024/03/03 02:14:20;;;;;;;69.10;27.25;;;;;;;2.19;100.00;94544.03;1040453;28;20689;-65
2024/03/03 02:14:50;;;;;;;68.97;27.58;;;;;;;2.19;100.00;94544.03;1043477;28;20147;-64
2024/03/03 02:15:21;;;;;;;79.53;28.17;;;;;;;2.19;100.00;94547.38;1041993;28;20028;-64
2024/03/03 02:15:51;;;;;;;71.25;26.92;;;;;;;2.17;100.00;94540.88;1039391;28;20017;-65
2024/03/03 02:16:22;;;;;;;75.88;26.83;;;;;;;2.15;100.00;94540.31;1039379;28;20120;-63
2024/03/03 02:16:52;;;;;;;79.40;27.85;;;;;;;2.15;100.00;94538.53;1043186;28;20440;-65
2024/03/03 02:17:23;;;;;;;71.50;26.80;;;;;;;2.16;100.00;94541.91;1043543;28;20103;-65
2024/03/03 02:17:54;;;;;;;72.55;28.70;;;;;;;2.13;100.00;94541.34;1034825;28;20513;-66
2024/03/03 02:18:25;;;;;;;76.47;27.00;;;;;;;2.12;100.00;94544.97;1038972;28;20382;-65
2024/03/03 02:18:55;;;;;;;75.65;27.63;;;;;;;2.13;100.00;94540.56;1043349;28;20271;-64
2024/03/03 02:19:32;;;;;;;68.85;26.05;;;;;;;2.11;100.00;94537.44;1040990;28;20432;-66
2024/03/03 02:20:04;;;;;;;70.22;26.80;;;;;;;2.10;100.00;94535.88;1043889;28;20484;-62
2024/03/03 02:20:36;;;;;;;73.28;27.08;;;;;;;2.09;100.00;94537.69;1042564;28;20268;-65
2024/03/03 02:21:06;;;;;;;70.85;26.92;;;;;;;2.10;100.00;94536.66;1038837;28;20272;-62
2024/03/03 02:21:36;;;;;;;67.20;25.55;;;;;;;2.09;100.00;94540.28;1038939;28;20346;-65